KDAL/DAL METAR and TAF weather

Enter ICAO airport designator
Station Type Date Time Source
KDAL METAR 2022/12/08 12:53 UTC NOAA

KDAL 081253Z 33007KT 7SM BKN007 OVC012 14/13 A3015 RMK AO2 SLP207 T01440133


Station Type Date Time Source
KDAL Decoded METAR 2022/12/08 12:53 UTC NOAA

DALLAS LOVE FIELD, TX, United States (KDAL) 32-51N 096-51W 158M
Dec 08, 2022 - 07:53 AM EST / 2022.12.08 1253 UTC
Wind: from the NNW (330 degrees) at 8 MPH (7 KT):0
Visibility: 7 mile(s):0
Sky conditions: overcast
Temperature: 57.9 F (14.4 C)
Dew Point: 55.9 F (13.3 C)
Relative Humidity: 93%
Pressure (altimeter): 30.15 in. Hg (1020 hPa)
ob: KDAL 081253Z 33007KT 7SM BKN007 OVC012 14/13 A3015 RMK AO2 SLP207 T01440133
cycle: 13

Station Type Date Time Source
KDAL TAF 2022/12/08 12:28 UTC NOAA

TAF KDAL 081126Z 0812/0912 34004KT 6SM BR BKN010
TEMPO 0812/0814 2SM BR OVC006
FM081500 21005KT P6SM VCSH BKN017
FM081900 22006KT P6SM VCSH SCT030 BKN045
FM090500 33004KT 5SM BR VCSH BKN009

Example: see airport list